Bloemendaal, Nederland

5:53 PM CEST op 30 augustus 2015 (GMT +0200)
Zandvoort | | Change Station
CLOSE
Current Station
Persoonlijk weerstation
Location: Zandvoort, NOORD HOLLAND
Geometrische hoogte: 33 ft
Nabije weerstations

Hoogte 33 ft 52.37 °N, 4.53 °E | Updated 2 minutes ago

Clear
Helder
76.1 °F
Voelt als 78 °F
N
2.0
Wind Variabel Wind van ONO
Gusts 7.0 mijl/u

Vandaag
Hoog -- | Laag -- °F
--% Kans op neerslag
Gisteren
Hoog -- | Laag -- °F
Precip. -- inches
6:48 AM 8:35 PM
Volle maan, 99% visible
Druk 30.01 inches
Zicht -9999.0 mijlen
Wolken
Warmteindex 78 °F
Dauwpunt 66 °F
Vochtigheid 71%
Neerslag 0.00 inches
Dikte sneeuw Niet beschikbaar.
UV Niet beschikbaar.
Pollen Niet beschikbaar.
Luchtkwaliteit Niet beschikbaar.
Flu Activity Niet beschikbaar.
METAR EHAM 301525Z 06007KT 020V100 CAVOK 23/18 Q1016 NOSIG
Druk 30.01 inches
Zicht -9999.0 mijlen
Wolken
Warmteindex 78 °F
Dauwpunt 66 °F
Vochtigheid 71%
Neerslag 0.00 inches
Dikte sneeuw Niet beschikbaar.
UV Niet beschikbaar.
Pollen Niet beschikbaar.
Luchtkwaliteit Niet beschikbaar.
Flu Activity Niet beschikbaar.
METAR EHAM 301525Z 06007KT 020V100 CAVOK 23/18 Q1016 NOSIG

10-Day Weather Forecast

×

Almanac

Astronomie

Aug. 30, 2015 Opkomst Ondergang
Werkelijke tijd
Burgerlijke schemering
Nautische schemering
Astronomische schemering
Maan
Golflengte van het zichtbare licht
Daglengte
Tomorrow will be .
, % of the Moon is Illuminated

Extremen vandaag

Country Highs Country Lows

Community

WunderPhotos

Upload Photos

1,850,997 foto’s ge-upload!

WunderBlogs® & News

Nearby

Luchtkwaliteit

  Luchtkwaliteit LK-index Verontreinigende stof
Not available.

Dikte sneeuw

Station Depth Geometrische hoogte

Aardbevingen

Stad Distance Mag. Time & Date
Minimum magnitude displayed is 2.5.

Watertemperatuur langs de kust

Plaats Temperatuur

Stations

Nabije weerstations

Locatie station Temp. Gevoelstemperatuur Dauwpunt Vochtigheid Wind Precip. Hoogte Geactualiseerd Type